Time;durP1;ratioP1;P1;durP2;ratioP2;P2;SDS_P1;SDS_P2;PMS_P1;PMS_P2;Temp;Humidity;BMP_temperature;BMP_pressure;BME280_temperature;BME280_humidity;BME280_pressure;Samples;Min_cycle;Max_cycle;Signal;HPM_P1;HPM_P2
2022/12/26 00:02:08;;;;;;;19.77;6.93;;;;;;;6.76;100.00;100353.59;5049497;28;20668;-61
2022/12/26 00:04:35;;;;;;;12.70;7.10;;;;;;;6.80;100.00;100358.72;5049377;28;20226;-61
2022/12/26 00:07:03;;;;;;;12.10;6.83;;;;;;;6.79;100.00;100356.13;5048685;28;20201;-61
2022/12/26 00:09:32;;;;;;;11.30;7.60;;;;;;;6.74;100.00;100361.31;5049066;28;20209;-61
2022/12/26 00:12:00;;;;;;;8.57;7.07;;;;;;;6.78;100.00;100368.19;5049386;28;20196;-52
2022/12/26 00:14:27;;;;;;;14.10;7.73;;;;;;;6.78;100.00;100372.47;5051548;28;20202;-52
2022/12/26 00:16:54;;;;;;;29.20;12.73;;;;;;;6.75;100.00;100375.94;5052727;28;20276;-60
2022/12/26 00:19:21;;;;;;;26.03;13.23;;;;;;;6.69;100.00;100381.09;5052768;28;20206;-51
2022/12/26 00:21:48;;;;;;;29.87;13.27;;;;;;;6.71;100.00;100381.09;5052616;28;20201;-52
2022/12/26 00:24:14;;;;;;;24.50;12.27;;;;;;;6.63;100.00;100386.25;5052558;28;20739;-52
2022/12/26 00:26:41;;;;;;;17.57;9.57;;;;;;;6.64;100.00;100387.97;5052819;28;20287;-51
2022/12/26 00:29:10;;;;;;;15.27;8.43;;;;;;;6.64;100.00;100387.13;5052706;28;20207;-51
2022/12/26 00:31:36;;;;;;;11.10;7.20;;;;;;;6.66;100.00;100393.97;5052617;28;20215;-60
2022/12/26 00:34:03;;;;;;;10.03;7.20;;;;;;;6.49;100.00;100393.97;5052327;28;20193;-61
2022/12/26 00:36:32;;;;;;;13.33;7.80;;;;;;;6.45;100.00;100397.38;5052329;28;20279;-49
2022/12/26 00:39:01;;;;;;;10.50;7.90;;;;;;;6.49;100.00;100406.00;5052310;28;20196;-60
2022/12/26 00:41:28;;;;;;;12.50;8.43;;;;;;;6.56;100.00;100407.72;5052168;28;20200;-60
2022/12/26 00:43:56;;;;;;;17.83;10.30;;;;;;;6.42;100.00;100409.44;5052034;28;20216;-61
2022/12/26 00:46:25;;;;;;;22.80;11.30;;;;;;;6.44;100.00;100405.09;5052085;28;20204;-60
2022/12/26 00:48:52;;;;;;;25.33;11.73;;;;;;;6.39;100.00;100412.84;5052181;28;20260;-60
2022/12/26 00:51:19;;;;;;;24.87;12.80;;;;;;;6.23;100.00;100407.63;5052076;28;20196;-50
2022/12/26 00:53:46;;;;;;;22.10;11.53;;;;;;;6.23;100.00;100407.63;5052069;28;20683;-51
2022/12/26 00:56:14;;;;;;;21.57;11.93;;;;;;;6.13;100.00;100384.41;5051877;28;20677;-51
2022/12/26 00:58:41;;;;;;;21.43;11.73;;;;;;;6.24;100.00;100402.50;5052080;28;20193;-51
2022/12/26 01:01:12;;;;;;;22.10;10.70;;;;;;;6.13;100.00;100388.72;5051683;28;20196;-49
2022/12/26 01:03:41;;;;;;;21.97;12.07;;;;;;;6.01;100.00;100386.94;5051936;28;20227;-49
2022/12/26 01:06:08;;;;;;;23.87;11.47;;;;;;;5.92;100.00;100393.78;5051793;28;20254;-50
2022/12/26 01:08:35;;;;;;;17.23;11.07;;;;;;;5.83;100.00;100394.59;5051551;28;20205;-50
2022/12/26 01:11:07;;;;;;;15.43;11.13;;;;;;;5.91;100.00;100397.22;5051977;28;20589;-50
2022/12/26 01:13:34;;;;;;;21.97;11.63;;;;;;;5.88;100.00;100392.00;5051371;28;20197;-59
2022/12/26 01:16:02;;;;;;;23.77;12.77;;;;;;;5.81;100.00;100404.88;5051781;28;20237;-60
2022/12/26 01:18:29;;;;;;;21.67;11.80;;;;;;;5.71;100.00;100405.69;5051244;28;20196;-61
2022/12/26 01:21:00;;;;;;;23.07;12.10;;;;;;;5.74;100.00;100398.00;5051356;28;20199;-51
2022/12/26 01:23:27;;;;;;;20.60;11.17;;;;;;;5.73;100.00;100406.56;5051368;28;20217;-60
2022/12/26 01:25:54;;;;;;;18.87;10.97;;;;;;;5.77;100.00;100418.59;5050402;28;20200;-60
2022/12/26 01:28:21;;;;;;;18.23;11.27;;;;;;;5.62;100.00;100417.66;5051175;28;20204;-61
2022/12/26 01:30:48;;;;;;;21.13;11.43;;;;;;;5.70;100.00;100424.56;5051656;28;20197;-60
2022/12/26 01:33:15;;;;;;;18.90;10.93;;;;;;;5.71;100.00;100421.16;5051242;28;20196;-51
2022/12/26 01:35:50;;;;;;;18.40;11.23;;;;;;;5.66;100.00;100422.81;5051079;28;20584;-49
2022/12/26 01:38:19;;;;;;;17.53;10.33;;;;;;;5.65;100.00;100417.66;5051204;28;20192;-50
2022/12/26 01:40:46;;;;;;;20.47;10.50;;;;;;;5.65;100.00;100415.94;5051377;28;20205;-50
2022/12/26 01:43:15;;;;;;;15.67;10.60;;;;;;;5.80;100.00;100416.03;5050840;28;20225;-50
2022/12/26 01:45:46;;;;;;;21.57;11.37;;;;;;;5.76;100.00;100414.28;5051019;28;20196;-51
2022/12/26 01:48:19;;;;;;;17.90;10.80;;;;;;;5.79;100.00;100418.59;5050668;28;20662;-51
2022/12/26 01:50:51;;;;;;;21.33;11.93;;;;;;;5.61;100.00;100416.81;5051225;28;20235;-51
2022/12/26 01:53:24;;;;;;;22.00;11.23;;;;;;;5.59;100.00;100422.78;5050977;28;20203;-52
2022/12/26 01:55:56;;;;;;;23.10;11.30;;;;;;;5.57;100.00;100427.94;5050744;28;20196;-51
2022/12/26 01:58:27;;;;;;;19.17;11.20;;;;;;;5.36;100.00;100428.66;5050779;28;20197;-51
2022/12/26 02:00:55;;;;;;;15.90;9.80;;;;;;;5.40;100.00;100425.25;5051025;28;20588;-50
2022/12/26 02:06:09;;;;;;;19.43;12.07;;;;;;;5.36;100.00;100423.50;5050849;28;20334;-51
2022/12/26 02:08:39;;;;;;;19.93;13.07;;;;;;;5.46;100.00;100419.28;5050853;28;20199;-60
2022/12/26 02:11:12;;;;;;;20.57;12.00;;;;;;;5.45;100.00;100427.84;5050568;28;20648;-60
2022/12/26 02:13:40;;;;;;;18.90;11.87;;;;;;;5.37;100.00;100420.09;5050774;28;20216;-52
2022/12/26 02:16:12;;;;;;;13.37;10.43;;;;;;;5.43;100.00;100432.13;5050416;28;20677;-60
2022/12/26 02:18:39;;;;;;;17.07;10.87;;;;;;;5.47;100.00;100436.44;5050417;28;20201;-60
2022/12/26 02:21:30;;;;;;;19.00;11.33;;;;;;;5.55;100.00;100439.94;5050505;28;20219;-62
2022/12/26 02:24:47;;;;;;;16.53;10.90;;;;;;;5.62;100.00;100433.97;5050247;28;20289;-60
2022/12/26 02:27:29;;;;;;;15.27;10.40;;;;;;;5.55;100.00;100429.63;5045792;28;20202;-59
2022/12/26 02:30:13;;;;;;;12.80;10.03;;;;;;;5.64;100.00;100434.00;5050179;28;20626;-60
2022/12/26 02:33:17;;;;;;;13.43;10.57;;;;;;;5.67;100.00;100429.69;5050526;28;20196;-60
2022/12/26 02:35:56;;;;;;;19.00;10.97;;;;;;;5.58;100.00;100434.81;5025633;28;20200;-60
2022/12/26 02:38:35;;;;;;;25.23;13.77;;;;;;;5.59;100.00;100433.09;5049924;28;20197;-60
2022/12/26 02:41:20;;;;;;;24.03;15.03;;;;;;;5.60;100.00;100427.97;5050177;28;20199;-59
2022/12/26 02:43:58;;;;;;;19.53;13.90;;;;;;;5.65;100.00;100440.84;5049914;28;20220;-60
2022/12/26 03:15:24;;;;;;;21.40;15.10;;;;;;;5.70;100.00;100415.97;5049910;28;20196;-49
2022/12/26 03:17:54;;;;;;;26.73;15.33;;;;;;;5.72;100.00;100416.84;5049979;28;20251;-50
2022/12/26 03:20:26;;;;;;;30.60;14.87;;;;;;;5.66;100.00;100409.94;5049959;28;20236;-51
2022/12/26 03:22:57;;;;;;;28.97;16.03;;;;;;;5.61;100.00;100410.78;5050066;28;20200;-50
2022/12/26 03:28:16;;;;;;;27.27;15.10;;;;;;;5.56;100.00;100408.19;5049573;28;20206;-50
2022/12/26 03:30:48;;;;;;;27.17;14.40;;;;;;;5.52;100.00;100418.47;5049511;28;20189;-52
2022/12/26 03:36:01;;;;;;;21.33;14.17;;;;;;;5.48;100.00;100403.00;5049565;28;20199;-52
2022/12/26 03:38:49;;;;;;;26.43;14.70;;;;;;;5.32;100.00;100383.13;5049384;28;20262;-51
2022/12/26 04:44:05;;;;;;;15.47;11.37;;;;;;;4.08;100.00;100459.97;5052392;28;20286;-61
2022/12/26 04:46:36;;;;;;;17.43;11.63;;;;;;;4.05;100.00;100467.66;5052315;28;20637;-52
2022/12/26 04:51:50;;;;;;;23.40;14.50;;;;;;;3.72;100.00;100469.78;5052061;28;20304;-59
2022/12/26 04:54:17;;;;;;;25.77;13.60;;;;;;;3.68;100.00;100465.44;5052063;28;20188;-61
2022/12/26 04:56:44;;;;;;;21.83;11.13;;;;;;;3.67;100.00;100474.84;5052019;28;20193;-61
2022/12/26 04:59:11;;;;;;;18.40;11.53;;;;;;;3.53;100.00;100474.63;5052439;28;20212;-60
2022/12/26 05:09:59;;;;;;;17.63;10.93;;;;;;;3.80;100.00;100479.31;5032635;28;20212;-53
2022/12/26 05:12:26;;;;;;;15.17;10.27;;;;;;;3.80;100.00;100486.16;5031970;28;20209;-49
2022/12/26 05:14:54;;;;;;;26.67;13.67;;;;;;;3.75;100.00;100472.38;5032140;28;20560;-51
2022/12/26 05:28:44;;;;;;;17.90;10.40;;;;;;;3.44;100.00;100500.16;5031486;28;20207;-60
2022/12/26 05:31:13;;;;;;;14.07;9.60;;;;;;;3.36;100.00;100490.63;5031443;28;20565;-59
2022/12/26 05:36:30;;;;;;;14.60;8.90;;;;;;;3.61;100.00;100500.44;5031275;28;20724;-50
2022/12/26 05:38:57;;;;;;;16.37;9.00;;;;;;;3.58;100.00;100506.38;5031154;28;20197;-51
2022/12/26 05:41:24;;;;;;;11.80;8.50;;;;;;;3.49;100.00;100490.00;5031013;28;20201;-52
2022/12/26 05:43:51;;;;;;;9.77;8.00;;;;;;;3.62;100.00;100505.56;5030918;28;20276;-51
2022/12/26 05:46:18;;;;;;;11.67;8.23;;;;;;;3.64;100.00;100495.34;5031388;28;20520;-52
2022/12/26 05:48:47;;;;;;;10.20;7.80;;;;;;;3.69;100.00;100498.84;5031080;28;20213;-52
2022/12/26 05:51:14;;;;;;;13.70;9.63;;;;;;;3.71;100.00;100501.44;5030649;28;20236;-52
2022/12/26 05:53:41;;;;;;;14.30;9.47;;;;;;;3.79;100.00;100510.09;5030778;28;20614;-52
2022/12/26 05:56:11;;;;;;;15.80;10.83;;;;;;;3.79;100.00;100498.13;5030526;28;20227;-53
2022/12/26 05:58:39;;;;;;;16.90;11.50;;;;;;;3.87;100.00;100501.66;5030621;28;20217;-61
2022/12/26 06:01:08;;;;;;;16.10;11.10;;;;;;;3.86;100.00;100499.94;5030313;28;20221;-61
2022/12/26 06:03:35;;;;;;;18.83;11.43;;;;;;;3.91;100.00;100506.00;5043138;28;20592;-53
2022/12/26 06:06:04;;;;;;;19.03;12.80;;;;;;;3.91;100.00;100505.16;5070340;28;20249;-52
2022/12/26 06:08:31;;;;;;;27.33;15.90;;;;;;;4.01;100.00;100501.84;5069837;28;20238;-50
2022/12/26 06:10:58;;;;;;;46.83;20.13;;;;;;;4.14;100.00;100510.59;5052566;28;20232;-52
2022/12/26 06:13:25;;;;;;;44.27;22.57;;;;;;;4.17;100.00;100508.06;5057382;28;20198;-60
2022/12/26 06:15:52;;;;;;;47.40;23.13;;;;;;;4.21;100.00;100505.53;5056906;28;20586;-59
2022/12/26 06:18:19;;;;;;;45.20;19.43;;;;;;;4.30;100.00;100509.94;5068575;28;20215;-60
2022/12/26 06:20:46;;;;;;;42.47;21.90;;;;;;;4.36;100.00;100515.16;5068473;28;20672;-60
2022/12/26 06:23:14;;;;;;;43.60;21.60;;;;;;;4.45;100.00;100511.81;5068271;28;20586;-60
2022/12/26 06:25:41;;;;;;;43.40;21.90;;;;;;;4.55;100.00;100517.09;5069058;28;20222;-60
2022/12/26 06:28:08;;;;;;;45.67;23.20;;;;;;;4.49;100.00;100519.59;5068852;28;20196;-60
2022/12/26 06:30:35;;;;;;;52.27;25.83;;;;;;;4.57;100.00;100524.81;5068403;28;20204;-60
2022/12/26 06:33:01;;;;;;;54.83;30.17;;;;;;;4.51;100.00;100527.34;5068586;28;20201;-60
2022/12/26 06:35:28;;;;;;;50.47;26.50;;;;;;;4.41;100.00;100528.03;5068594;28;20701;-60
2022/12/26 06:37:55;;;;;;;42.63;23.77;;;;;;;4.51;100.00;100529.91;5068491;28;20202;-61
2022/12/26 06:40:24;;;;;;;45.23;23.13;;;;;;;4.53;100.00;100528.19;5068365;28;20246;-60
2022/12/26 06:42:50;;;;;;;27.80;17.90;;;;;;;4.39;100.00;100528.06;5068617;28;20235;-61
2022/12/26 06:45:18;;;;;;;35.00;16.90;;;;;;;4.51;100.00;100535.91;5068736;28;20219;-61
2022/12/26 06:47:46;;;;;;;30.20;16.73;;;;;;;4.52;100.00;100542.75;5068916;28;20677;-60
2022/12/26 06:50:13;;;;;;;35.20;17.77;;;;;;;4.57;100.00;100535.09;5068402;28;20200;-61
2022/12/26 06:52:39;;;;;;;35.60;18.93;;;;;;;4.61;100.00;100542.88;5068268;28;20298;-61
2022/12/26 06:55:07;;;;;;;33.67;19.17;;;;;;;4.67;100.00;100548.09;5053123;28;20204;-61
2022/12/26 06:57:35;;;;;;;49.33;24.53;;;;;;;4.68;100.00;100546.38;5048665;28;20196;-61
2022/12/26 07:00:03;;;;;;;56.80;28.33;;;;;;;4.77;100.00;100543.03;5048473;28;20207;-62
2022/12/26 07:02:30;;;;;;;50.70;27.03;;;;;;;4.81;100.00;100540.53;5048370;28;20717;-52
2022/12/26 07:04:57;;;;;;;48.87;26.93;;;;;;;4.83;100.00;100538.84;5048764;28;20222;-52
2022/12/26 07:07:24;;;;;;;44.70;25.23;;;;;;;4.93;100.00;100545.81;5048718;28;20196;-52
2022/12/26 07:09:51;;;;;;;58.63;25.27;;;;;;;4.94;100.00;100546.69;5029686;28;20206;-52
2022/12/26 07:12:20;;;;;;;37.77;22.60;;;;;;;5.02;100.00;100543.31;5029072;28;20600;-50
2022/12/26 07:14:49;;;;;;;40.17;23.77;;;;;;;5.18;100.00;100553.78;5028901;28;20197;-52
2022/12/26 07:17:16;;;;;;;43.47;24.20;;;;;;;5.24;100.00;100543.53;5028856;28;20232;-62
2022/12/26 07:19:43;;;;;;;41.57;22.67;;;;;;;5.22;100.00;100550.38;5028883;28;20240;-62
2022/12/26 07:22:09;;;;;;;42.87;24.97;;;;;;;5.23;100.00;100552.09;5028683;28;20296;-62
2022/12/26 07:24:36;;;;;;;36.80;20.63;;;;;;;5.25;100.00;100563.28;5032096;28;20225;-62
2022/12/26 07:27:03;;;;;;;38.37;22.90;;;;;;;5.31;100.00;100563.31;5033120;28;20201;-52
2022/12/26 07:29:30;;;;;;;35.60;20.03;;;;;;;5.44;100.00;100573.75;5032909;28;20197;-51
2022/12/26 07:31:59;;;;;;;36.37;19.97;;;;;;;5.39;100.00;100575.44;5032374;28;20203;-51
2022/12/26 07:34:26;;;;;;;29.77;19.00;;;;;;;5.51;100.00;100569.53;5032367;28;20683;-52
2022/12/26 07:36:53;;;;;;;33.57;17.87;;;;;;;5.58;100.00;100571.28;5032452;28;20205;-53
2022/12/26 07:39:20;;;;;;;30.83;18.20;;;;;;;5.67;100.00;100568.78;5032686;28;20205;-51
2022/12/26 07:41:59;;;;;;;34.03;19.47;;;;;;;5.73;100.00;100573.13;5032724;28;20593;-52
2022/12/26 07:44:27;;;;;;;33.60;19.17;;;;;;;5.78;100.00;100574.88;5039418;28;20228;-51
2022/12/26 07:46:55;;;;;;;37.53;20.90;;;;;;;5.78;100.00;100577.47;5065793;28;20204;-51
2022/12/26 07:49:24;;;;;;;31.33;20.23;;;;;;;5.74;100.00;100580.88;5070569;28;20193;-51
2022/12/26 07:51:51;;;;;;;43.10;22.30;;;;;;;5.80;100.00;100583.50;5071273;28;20556;-52
2022/12/26 07:54:19;;;;;;;36.57;22.23;;;;;;;5.92;100.00;100592.19;5071124;28;20283;-52
2022/12/26 07:56:46;;;;;;;43.53;22.03;;;;;;;6.06;100.00;100588.00;5071611;28;20295;-52
2022/12/26 07:59:14;;;;;;;34.53;19.43;;;;;;;6.14;100.00;100592.34;5071544;28;20282;-50
2022/12/26 08:01:42;;;;;;;35.03;20.40;;;;;;;6.25;100.00;100595.00;5071598;28;20199;-51
2022/12/26 08:04:09;;;;;;;36.93;21.23;;;;;;;6.38;100.00;100591.63;5070886;28;20279;-59
2022/12/26 08:06:38;;;;;;;45.30;25.67;;;;;;;6.46;100.00;100594.25;5070568;28;20220;-58
2022/12/26 08:09:05;;;;;;;53.17;29.60;;;;;;;6.50;100.00;100594.28;5070435;28;20257;-59
2022/12/26 08:11:34;;;;;;;40.73;22.90;;;;;;;6.56;100.00;100585.69;5071478;28;20306;-59
2022/12/26 08:14:01;;;;;;;34.83;20.00;;;;;;;6.61;100.00;100584.00;5072060;28;20630;-59
2022/12/26 08:16:28;;;;;;;27.00;15.73;;;;;;;6.57;100.00;100567.66;5071086;28;20715;-59
2022/12/26 08:18:55;;;;;;;22.50;12.70;;;;;;;6.57;100.00;100595.16;5052829;28;20231;-58
2022/12/26 08:21:22;;;;;;;21.33;12.77;;;;;;;6.59;100.00;100596.03;5066923;28;20691;-60
2022/12/26 08:23:50;;;;;;;17.50;12.97;;;;;;;6.59;100.00;100587.44;5068397;28;20223;-59
2022/12/26 08:26:21;;;;;;;23.97;12.80;;;;;;;6.66;100.00;100591.78;5069628;28;20249;-59
2022/12/26 08:28:49;;;;;;;23.47;12.67;;;;;;;6.68;100.00;100590.03;5069604;28;20299;-51
2022/12/26 08:31:17;;;;;;;19.70;13.10;;;;;;;6.73;100.00;100588.34;5069577;28;20220;-50
2022/12/26 08:33:45;;;;;;;18.37;11.17;;;;;;;6.81;100.00;100581.50;5069417;28;20663;-51
2022/12/26 08:36:15;;;;;;;19.73;11.00;;;;;;;6.87;100.00;100574.66;5069832;28;20230;-59
2022/12/26 08:38:42;;;;;;;17.67;10.73;;;;;;;6.93;100.00;100573.78;5069011;28;20300;-59
2022/12/26 08:41:11;;;;;;;16.80;11.10;;;;;;;7.13;100.00;100572.13;5048309;28;20229;-59
2022/12/26 08:43:38;;;;;;;16.73;11.43;;;;;;;7.14;100.00;100581.59;5029366;28;20271;-59
2022/12/26 08:46:07;;;;;;;18.40;10.90;;;;;;;7.12;100.00;100572.13;5029441;28;20256;-59
2022/12/26 08:48:35;;;;;;;20.77;11.93;;;;;;;7.17;100.00;100571.28;5029923;28;20333;-59
2022/12/26 08:51:05;;;;;;;21.27;12.47;;;;;;;7.16;100.00;100568.69;5030174;28;20201;-59
2022/12/26 08:53:34;;;;;;;16.17;12.03;;;;;;;7.18;100.00;100569.56;5029532;28;20205;-59
2022/12/26 08:56:02;;;;;;;21.70;13.63;;;;;;;7.34;100.00;100567.84;5029899;28;20205;-60
2022/12/26 08:58:30;;;;;;;20.20;13.30;;;;;;;7.36;100.00;100560.97;5029750;28;20693;-59
2022/12/26 09:01:06;;;;;;;18.23;13.10;;;;;;;7.38;100.00;100549.78;5029080;28;20248;-51
2022/12/26 09:03:33;;;;;;;17.47;11.83;;;;;;;7.51;100.00;100553.22;5029092;28;20227;-52
2022/12/26 09:06:00;;;;;;;18.43;11.90;;;;;;;7.48;100.00;100551.50;5028740;28;20233;-51
2022/12/26 09:08:29;;;;;;;17.13;12.03;;;;;;;7.52;100.00;100542.91;5045957;28;20208;-52
2022/12/26 09:10:56;;;;;;;26.17;13.50;;;;;;;7.62;100.00;100551.50;5048912;28;20192;-51
2022/12/26 09:13:23;;;;;;;22.80;14.20;;;;;;;7.68;100.00;100548.03;5049400;28;20197;-50
2022/12/26 09:15:51;;;;;;;20.47;12.73;;;;;;;7.80;100.00;100540.28;5007147;28;1229492;-51
2022/12/26 09:18:18;;;;;;;14.73;11.47;;;;;;;7.90;100.00;100534.25;5050923;28;20695;-52
2022/12/26 09:20:45;;;;;;;20.20;13.00;;;;;;;7.98;100.00;100528.22;5050692;28;20197;-52
2022/12/26 09:23:14;;;;;;;21.60;15.27;;;;;;;8.13;100.00;100521.25;5050473;28;20196;-49
2022/12/26 09:25:41;;;;;;;19.77;14.10;;;;;;;8.17;100.00;100523.84;5051033;28;20718;-51
2022/12/26 09:28:08;;;;;;;45.03;22.93;;;;;;;8.21;100.00;100522.13;5050921;28;20200;-50
2022/12/26 09:30:36;;;;;;;40.17;20.87;;;;;;;8.34;100.00;100516.06;5050568;28;20236;-50
2022/12/26 09:33:06;;;;;;;20.57;13.20;;;;;;;8.57;100.00;100523.75;5050412;28;20207;-50
2022/12/26 09:35:33;;;;;;;18.37;11.90;;;;;;;8.46;100.00;100516.03;5050596;28;20593;-50
2022/12/26 09:38:00;;;;;;;16.77;11.80;;;;;;;8.56;100.00;100512.53;5050533;28;20387;-50
2022/12/26 09:40:32;;;;;;;18.47;11.87;;;;;;;8.63;100.00;100503.84;5050707;28;20199;-59
2022/12/26 09:43:16;;;;;;;20.47;12.33;;;;;;;8.59;100.00;100502.13;5050585;28;20203;-60
2022/12/26 09:45:52;;;;;;;20.77;12.73;;;;;;;8.66;100.00;100498.66;5049575;28;20224;-59
2022/12/26 09:48:27;;;;;;;17.30;11.60;;;;;;;8.71;100.00;100502.06;5065230;28;20211;-52
2022/12/26 09:50:54;;;;;;;15.97;10.73;;;;;;;8.78;100.00;100496.88;5069611;28;20195;-52
2022/12/26 09:53:29;;;;;;;20.23;13.30;;;;;;;8.81;100.00;100496.84;5068160;28;20203;-52
2022/12/26 09:56:00;;;;;;;14.13;10.17;;;;;;;8.79;100.00;100496.03;5066858;28;20666;-52
2022/12/26 09:58:29;;;;;;;13.20;10.63;;;;;;;8.81;100.00;100494.25;5067777;28;20206;-51
2022/12/26 10:01:01;;;;;;;16.30;9.90;;;;;;;8.88;100.00;100490.78;5067405;28;20661;-52
2022/12/26 10:03:34;;;;;;;13.53;10.20;;;;;;;8.91;100.00;100501.13;5067909;28;20210;-51
2022/12/26 10:06:11;;;;;;;22.40;13.63;;;;;;;8.95;99.28;100490.72;5063211;28;20722;-51
2022/12/26 10:08:48;;;;;;;27.97;18.20;;;;;;;9.02;99.66;100491.56;5069260;28;20210;-59
2022/12/26 10:11:23;;;;;;;29.53;17.93;;;;;;;9.13;98.98;100489.75;5066187;28;20282;-58
2022/12/26 10:13:55;;;;;;;24.27;14.33;;;;;;;9.19;99.05;100488.81;5065116;28;20195;-51
2022/12/26 10:16:26;;;;;;;16.53;10.40;;;;;;;9.25;97.60;100474.13;5068287;28;20242;-51
2022/12/26 10:19:02;;;;;;;17.33;11.53;;;;;;;9.32;97.00;100493.03;5069158;28;20202;-51
2022/12/26 10:21:44;;;;;;;17.13;12.57;;;;;;;9.37;97.46;100484.34;5068956;28;20273;-52
2022/12/26 10:24:17;;;;;;;16.17;11.10;;;;;;;9.19;97.39;100453.41;5068567;28;20202;-59
2022/12/26 10:26:49;;;;;;;20.87;13.00;;;;;;;9.37;97.35;100466.22;5069188;28;20269;-59
2022/12/26 10:29:21;;;;;;;18.83;11.83;;;;;;;9.48;97.71;100482.50;5069902;28;20200;-59
2022/12/26 10:31:54;;;;;;;18.97;12.70;;;;;;;9.58;97.34;100469.50;5069449;28;20203;-59
2022/12/26 10:34:27;;;;;;;13.00;9.50;;;;;;;9.57;96.67;100470.38;5069431;28;20188;-59
2022/12/26 10:36:59;;;;;;;18.37;12.50;;;;;;;9.62;96.86;100458.22;5069492;28;20188;-51
2022/12/26 10:39:30;;;;;;;25.67;11.60;;;;;;;9.62;97.12;100455.63;5068655;28;20204;-50
2022/12/26 10:42:01;;;;;;;12.80;9.23;;;;;;;9.64;96.18;100456.47;5068630;28;20202;-50
2022/12/26 10:44:28;;;;;;;9.97;8.40;;;;;;;9.69;96.16;100447.78;5068460;28;20200;-51
2022/12/26 10:47:22;;;;;;;12.97;9.70;;;;;;;9.85;95.15;100440.69;5065862;28;20630;-51
2022/12/26 10:49:50;;;;;;;12.23;8.83;;;;;;;9.77;95.56;100437.31;5066163;28;20202;-52
2022/12/26 10:52:19;;;;;;;12.33;8.30;;;;;;;9.76;95.74;100440.78;5068482;28;20268;-51
2022/12/26 10:54:53;;;;;;;13.90;9.80;;;;;;;9.86;95.62;100426.84;5068744;28;20196;-51
2022/12/26 10:57:21;;;;;;;18.90;11.83;;;;;;;9.91;95.78;100432.00;5069168;28;20195;-58
2022/12/26 10:59:51;;;;;;;17.07;11.53;;;;;;;9.97;94.99;100424.13;5070046;28;20759;-58
2022/12/26 11:02:28;;;;;;;22.10;11.53;;;;;;;10.01;93.32;100426.69;5069711;28;20203;-59
2022/12/26 11:05:02;;;;;;;16.10;11.43;;;;;;;10.09;93.79;100419.66;5069750;28;20199;-52
2022/12/26 11:07:33;;;;;;;23.07;15.53;;;;;;;10.14;93.62;100414.41;5065584;28;20253;-51
2022/12/26 11:10:02;;;;;;;24.43;15.73;;;;;;;10.16;93.80;100412.63;5068773;28;20195;-52
2022/12/26 11:12:38;;;;;;;25.40;17.30;;;;;;;10.18;94.11;100414.38;5068638;28;20202;-52
2022/12/26 11:15:17;;;;;;;23.90;16.50;;;;;;;10.27;94.02;100412.56;5063961;28;20204;-53
2022/12/26 11:17:45;;;;;;;28.77;17.07;;;;;;;10.45;93.16;100413.16;5069123;28;20269;-52
2022/12/26 11:20:24;;;;;;;24.97;17.07;;;;;;;10.43;93.47;100409.72;5069117;28;20314;-52
2022/12/26 11:22:51;;;;;;;33.63;17.10;;;;;;;10.39;93.87;100408.03;5069094;28;20543;-50
2022/12/26 11:25:21;;;;;;;26.50;17.57;;;;;;;10.42;94.18;100402.81;5069059;28;20211;-50
2022/12/26 11:27:51;;;;;;;25.93;15.80;;;;;;;10.43;94.19;100390.69;5068896;28;20246;-50
2022/12/26 11:30:27;;;;;;;24.53;15.90;;;;;;;10.66;92.81;100395.53;5069062;28;20596;-51
2022/12/26 11:33:13;;;;;;;20.73;13.50;;;;;;;10.60;92.92;100390.47;5069189;28;20205;-50
2022/12/26 11:35:51;;;;;;;21.60;12.93;;;;;;;10.53;93.54;100392.28;5069577;28;20282;-52
2022/12/26 11:41:35;;;;;;;19.80;13.17;;;;;;;10.67;93.32;100390.34;5106710;27;21016;-51
2022/12/26 11:44:16;;;;;;;16.30;10.87;;;;;;;10.56;93.18;100384.44;5106399;28;20203;-50
2022/12/26 11:46:51;;;;;;;14.80;10.87;;;;;;;10.67;93.50;100392.94;5099109;28;20277;-51
2022/12/26 11:49:22;;;;;;;12.33;9.30;;;;;;;10.64;93.06;100384.31;5105196;28;20233;-51
2022/12/26 11:51:51;;;;;;;12.83;9.37;;;;;;;10.71;93.29;100385.97;5104137;28;20207;-52
2022/12/26 11:54:47;;;;;;;10.87;8.37;;;;;;;10.68;92.89;100389.47;5105743;28;21186;-51
2022/12/26 11:57:21;;;;;;;17.93;11.87;;;;;;;10.69;93.33;100373.00;5103342;28;20667;-51
2022/12/26 11:59:49;;;;;;;15.90;11.50;;;;;;;10.70;93.58;100385.09;5103331;28;20214;-51
2022/12/26 12:02:21;;;;;;;18.90;12.50;;;;;;;10.76;93.09;100376.34;5105744;28;20203;-60
2022/12/26 12:04:50;;;;;;;10.20;6.77;;;;;;;10.82;92.27;100377.13;5101108;28;20277;-59
2022/12/26 12:07:30;;;;;;;8.53;7.13;;;;;;;10.94;91.90;100367.41;5105937;28;20191;-59
2022/12/26 12:10:03;;;;;;;10.07;7.87;;;;;;;10.89;91.75;100370.09;5106502;28;20581;-59
2022/12/26 12:12:38;;;;;;;11.87;8.93;;;;;;;10.88;92.24;100370.97;5101792;28;20214;-59
2022/12/26 12:15:13;;;;;;;11.97;9.33;;;;;;;10.90;92.76;100369.19;5104098;28;20588;-59
2022/12/26 12:17:48;;;;;;;13.00;8.40;;;;;;;11.00;92.01;100373.34;5105901;28;20216;-59
2022/12/26 12:20:29;;;;;;;13.23;11.27;;;;;;;11.05;92.09;100368.09;5105992;28;20218;-58
2022/12/26 12:23:17;;;;;;;7.70;6.17;;;;;;;11.19;91.04;100360.91;5105271;28;20655;-58
2022/12/26 12:25:57;;;;;;;8.40;6.10;;;;;;;11.10;91.53;100361.06;5103551;28;20191;-58
2022/12/26 12:29:12;;;;;;;12.10;7.23;;;;;;;11.04;92.30;100361.19;5106180;28;20583;-59
2022/12/26 12:31:55;;;;;;;10.57;8.40;;;;;;;11.11;92.41;100362.78;5059461;28;20202;-58
2022/12/26 12:34:31;;;;;;;7.23;6.60;;;;;;;11.16;91.64;100360.97;5105779;28;20197;-59
2022/12/26 12:37:11;;;;;;;7.20;6.30;;;;;;;11.29;91.00;100365.03;5105998;28;20190;-59
2022/12/26 12:39:47;;;;;;;11.60;6.63;;;;;;;11.24;91.49;100369.47;5104847;28;20226;-61
2022/12/26 12:42:28;;;;;;;7.77;5.03;;;;;;;11.24;91.50;100370.34;5105710;28;20285;-59
2022/12/26 12:45:26;;;;;;;7.30;5.50;;;;;;;11.36;91.19;100361.47;5104565;28;20214;-59
2022/12/26 12:48:18;;;;;;;6.20;5.60;;;;;;;11.40;90.93;100364.88;5106233;28;20638;-59
2022/12/26 12:50:56;;;;;;;6.40;5.77;;;;;;;11.42;90.28;100360.47;5098565;28;20223;-50
2022/12/26 12:53:38;;;;;;;9.27;5.63;;;;;;;11.37;90.98;100364.91;5090978;28;20605;-51
2022/12/26 12:56:20;;;;;;;5.17;4.77;;;;;;;11.45;90.03;100363.88;5087932;28;20203;-51
2022/12/26 12:58:54;;;;;;;13.97;12.30;;;;;;;11.43;90.35;100357.84;5087521;28;20659;-58
2022/12/26 13:01:24;;;;;;;17.70;12.10;;;;;;;11.49;90.34;100354.28;5090801;28;20218;-59
2022/12/26 13:03:58;;;;;;;8.63;6.47;;;;;;;11.44;89.72;100369.97;5089994;28;20694;-51
2022/12/26 13:06:29;;;;;;;8.60;4.93;;;;;;;11.53;89.25;100371.53;5088714;28;20226;-51
2022/12/26 13:09:00;;;;;;;7.17;5.37;;;;;;;11.48;89.27;100369.03;5089027;28;20195;-52
2022/12/26 13:11:31;;;;;;;6.07;5.00;;;;;;;11.48;89.22;100366.44;5087997;28;20282;-50
2022/12/26 13:14:02;;;;;;;7.63;5.27;;;;;;;11.42;89.49;100363.06;5090325;28;20188;-52
2022/12/26 13:16:35;;;;;;;5.10;4.60;;;;;;;11.40;89.55;100357.91;5088328;28;20289;-52
2022/12/26 13:19:07;;;;;;;5.53;4.30;;;;;;;11.55;89.24;100357.63;5091407;28;20203;-60
2022/12/26 13:21:38;;;;;;;6.87;5.70;;;;;;;11.62;88.93;100348.78;5091880;28;20225;-59
2022/12/26 13:24:24;;;;;;;5.67;5.17;;;;;;;11.61;88.56;100349.72;5091869;28;20194;-60
2022/12/26 13:26:58;;;;;;;6.50;5.33;;;;;;;11.48;89.69;100348.22;5092002;28;20675;-59
2022/12/26 13:29:34;;;;;;;6.33;5.10;;;;;;;11.58;89.48;100348.91;5091709;28;20195;-59
2022/12/26 13:32:03;;;;;;;5.97;5.17;;;;;;;11.46;89.78;100343.94;5091955;28;20248;-60
2022/12/26 13:34:32;;;;;;;6.13;5.27;;;;;;;11.42;90.30;100350.94;5091468;28;20820;-59
2022/12/26 13:37:00;;;;;;;10.73;6.80;;;;;;;11.43;90.16;100351.78;5091362;28;20199;-51
2022/12/26 13:39:37;;;;;;;7.67;5.97;;;;;;;11.53;89.73;100341.19;5080861;28;20237;-51